createdAt,value
2019-04-14T00:00:27.267Z,4.47
2019-04-14T00:03:08.661Z,4.48
2019-04-14T00:05:38.608Z,4.47
2019-04-14T00:08:09.108Z,4.40
2019-04-14T00:10:38.486Z,4.38
2019-04-14T00:13:08.979Z,4.40
2019-04-14T00:15:42.700Z,4.39
2019-04-14T00:18:09.714Z,4.39
2019-04-14T00:20:39.103Z,4.41
2019-04-14T00:23:08.822Z,4.37
2019-04-14T00:25:39.081Z,4.37
2019-04-14T00:28:09.495Z,4.35
2019-04-14T00:30:40.426Z,4.30
2019-04-14T00:33:28.108Z,4.27
2019-04-14T00:36:15.451Z,4.26
2019-04-14T00:38:47.807Z,4.27
2019-04-14T00:41:39.425Z,4.19
2019-04-14T00:44:07.996Z,4.19
2019-04-14T00:46:51.710Z,4.10
2019-04-14T00:49:22.148Z,4.02
2019-04-14T00:51:52.713Z,3.94
2019-04-14T00:54:22.303Z,3.90
2019-04-14T00:56:52.106Z,3.88
2019-04-14T00:59:22.262Z,3.88
2019-04-14T01:01:52.500Z,3.83
2019-04-14T01:04:22.954Z,3.80
2019-04-14T01:06:53.350Z,3.79
2019-04-14T01:09:23.976Z,3.78
2019-04-14T01:11:53.404Z,3.78
2019-04-14T01:14:23.298Z,3.79
2019-04-14T01:16:53.839Z,3.75
2019-04-14T01:19:24.442Z,3.72
2019-04-14T01:21:54.599Z,3.71
2019-04-14T01:24:24.988Z,3.67
2019-04-14T01:26:55.004Z,3.67
2019-04-14T01:29:25.420Z,3.65
2019-04-14T01:31:55.771Z,3.66
2019-04-14T01:34:26.011Z,3.64
2019-04-14T01:36:56.141Z,3.64
2019-04-14T01:39:26.528Z,3.62
2019-04-14T01:41:56.514Z,3.58
2019-04-14T01:44:28.435Z,3.54
2019-04-14T01:46:58.796Z,3.52
2019-04-14T01:49:29.143Z,3.49
2019-04-14T01:52:10.308Z,3.45
2019-04-14T01:54:41.334Z,3.42
2019-04-14T01:57:24.343Z,3.37
2019-04-14T01:59:54.663Z,3.33
2019-04-14T02:02:27.019Z,3.31
2019-04-14T02:04:57.697Z,3.28
2019-04-14T02:07:27.695Z,3.26
2019-04-14T02:09:59.411Z,3.25
2019-04-14T02:12:30.199Z,3.22
2019-04-14T02:15:00.492Z,3.19
2019-04-14T02:17:30.737Z,3.17
2019-04-14T02:20:01.179Z,3.14
2019-04-14T02:22:31.265Z,3.12
2019-04-14T02:25:01.501Z,3.11
2019-04-14T02:27:31.717Z,3.06
2019-04-14T02:30:03.550Z,3.04
2019-04-14T02:33:07.310Z,3.00
2019-04-14T02:35:37.283Z,2.97
2019-04-14T02:38:18.203Z,2.93
2019-04-14T02:43:14.539Z,2.83
2019-04-14T02:45:46.723Z,2.78
2019-04-14T02:48:35.400Z,2.73
2019-04-14T02:50:42.177Z,2.70
2019-04-14T02:53:18.081Z,2.65
2019-04-14T02:55:49.485Z,2.63
2019-04-14T02:58:24.634Z,2.59
2019-04-14T03:00:55.046Z,2.55
2019-04-14T03:03:24.082Z,2.49
2019-04-14T03:05:53.705Z,2.44
2019-04-14T03:08:26.348Z,2.42
2019-04-14T03:10:56.002Z,2.40
2019-04-14T03:13:29.229Z,2.39
2019-04-14T03:16:04.087Z,2.37
2019-04-14T03:18:47.254Z,2.35
2019-04-14T03:21:26.267Z,2.33
2019-04-14T03:24:12.677Z,2.32
2019-04-14T03:26:47.423Z,2.28
2019-04-14T03:29:32.404Z,2.26
2019-04-14T03:32:11.462Z,2.25
2019-04-14T03:34:42.982Z,2.21
2019-04-14T03:44:41.475Z,2.13
2019-04-14T03:47:13.515Z,2.11
2019-04-14T03:49:52.435Z,2.07
2019-04-14T03:52:34.964Z,2.05
2019-04-14T03:54:34.987Z,2.03
2019-04-14T03:56:51.578Z,2.01
2019-04-14T03:59:21.881Z,1.99
2019-04-14T04:01:52.244Z,2.00
2019-04-14T04:04:22.769Z,1.98
2019-04-14T04:06:53.161Z,1.97
2019-04-14T04:09:25.630Z,1.96
2019-04-14T04:11:56.359Z,1.93
2019-04-14T04:14:27.003Z,1.93
2019-04-14T04:16:59.509Z,1.90
2019-04-14T04:19:49.239Z,1.88
2019-04-14T04:22:24.448Z,1.88
2019-04-14T04:25:01.264Z,1.86
2019-04-14T04:27:48.390Z,1.85
2019-04-14T04:30:23.153Z,1.83
2019-04-14T04:32:54.188Z,1.83
2019-04-14T04:35:43.674Z,1.81
2019-04-14T04:38:15.881Z,1.80
2019-04-14T04:40:46.160Z,1.75
2019-04-14T04:43:16.842Z,1.75
2019-04-14T04:45:47.365Z,1.73
2019-04-14T04:48:19.667Z,1.73
2019-04-14T04:50:49.889Z,1.74
2019-04-14T04:53:22.367Z,1.75
2019-04-14T04:55:52.487Z,1.75
2019-04-14T04:58:22.180Z,1.76
2019-04-14T05:00:53.963Z,1.77
2019-04-14T05:03:23.334Z,1.79
2019-04-14T05:06:20.163Z,1.80
2019-04-14T05:08:52.349Z,1.82
2019-04-14T05:11:29.531Z,1.85
2019-04-14T05:14:00.864Z,1.85
2019-04-14T05:16:30.296Z,1.89
2019-04-14T05:19:12.017Z,1.93
2019-04-14T05:21:32.063Z,1.96
2019-04-14T05:24:02.749Z,1.99
2019-04-14T05:26:33.109Z,2.04
2019-04-14T05:29:03.577Z,2.09
2019-04-14T05:31:33.654Z,2.13
2019-04-14T05:34:04.311Z,2.18
2019-04-14T05:36:34.926Z,2.24
2019-04-14T05:39:06.813Z,2.27
2019-04-14T05:41:37.571Z,2.33
2019-04-14T05:44:07.919Z,2.40
2019-04-14T05:46:38.147Z,2.47
2019-04-14T05:49:08.576Z,2.53
2019-04-14T05:51:37.995Z,2.58
2019-04-14T05:54:07.864Z,2.67
2019-04-14T05:56:39.114Z,2.76
2019-04-14T05:59:08.893Z,2.84
2019-04-14T06:01:39.216Z,2.92
2019-04-14T06:04:09.761Z,3.05
2019-04-14T06:06:39.137Z,3.17
2019-04-14T06:09:08.894Z,3.29
2019-04-14T06:11:39.535Z,3.39
2019-04-14T06:14:09.005Z,3.50
2019-04-14T06:16:39.671Z,3.58
2019-04-14T06:19:09.055Z,3.71
2019-04-14T06:21:39.558Z,3.84
2019-04-14T06:24:08.929Z,3.98
2019-04-14T06:26:39.068Z,4.13
2019-04-14T06:29:09.577Z,4.27
2019-04-14T06:31:49.432Z,4.37
2019-04-14T06:34:30.395Z,4.48
2019-04-14T06:39:54.862Z,4.72
2019-04-14T06:42:24.227Z,4.84
2019-04-14T06:44:55.247Z,5.01
2019-04-14T06:47:24.935Z,5.09
2019-04-14T06:49:54.653Z,5.25
2019-04-14T06:52:25.515Z,5.36
2019-04-14T06:54:54.943Z,5.47
2019-04-14T06:57:25.017Z,5.59
2019-04-14T06:59:54.692Z,5.70
2019-04-14T07:02:24.082Z,5.79
2019-04-14T07:04:53.762Z,5.85
2019-04-14T07:07:23.160Z,5.93
2019-04-14T07:09:53.002Z,6.03
2019-04-14T07:12:22.674Z,6.14
2019-04-14T07:14:52.054Z,6.24
2019-04-14T07:17:21.437Z,6.33
2019-04-14T07:20:01.298Z,6.33
2019-04-14T07:22:22.560Z,6.39
2019-04-14T07:24:51.972Z,6.50
2019-04-14T07:27:21.356Z,6.58
2019-04-14T07:30:07.688Z,6.53
2019-04-14T07:32:38.873Z,6.57
2019-04-14T07:35:25.038Z,6.76
2019-04-14T07:37:58.994Z,6.95
2019-04-14T07:40:33.516Z,7.19
2019-04-14T07:43:10.185Z,7.42
2019-04-14T07:45:41.493Z,7.63
2019-04-14T07:48:12.655Z,7.79
2019-04-14T07:50:56.070Z,7.95
2019-04-14T07:53:28.871Z,8.07
2019-04-14T07:56:15.103Z,8.19
2019-04-14T07:58:55.412Z,8.32
2019-04-14T08:01:29.872Z,8.48
2019-04-14T08:04:03.593Z,8.58
2019-04-14T08:06:33.430Z,8.62
2019-04-14T08:09:03.015Z,8.68
2019-04-14T08:11:34.096Z,8.78
2019-04-14T08:14:03.482Z,8.93
2019-04-14T08:16:33.168Z,9.18
2019-04-14T08:19:03.200Z,9.18
2019-04-14T08:21:32.885Z,9.30
2019-04-14T08:24:02.266Z,9.47
2019-04-14T08:26:32.892Z,9.59
2019-04-14T08:29:02.250Z,9.85
2019-04-14T08:31:35.625Z,10.03
2019-04-14T08:34:05.064Z,10.32
2019-04-14T08:36:34.451Z,10.32
2019-04-14T08:39:05.411Z,10.66
2019-04-14T08:41:36.935Z,10.66
2019-04-14T08:44:07.922Z,10.79
2019-04-14T08:46:41.913Z,10.90
2019-04-14T08:49:18.737Z,11.03
2019-04-14T08:52:06.390Z,11.11
2019-04-14T08:54:37.703Z,11.18
2019-04-14T08:57:25.210Z,11.31
2019-04-14T08:59:58.970Z,11.47
2019-04-14T09:02:30.294Z,11.55
2019-04-14T09:05:13.524Z,11.62
2019-04-14T09:07:48.040Z,11.47
2019-04-14T09:10:19.059Z,11.47
2019-04-14T09:12:52.568Z,11.60
2019-04-14T09:15:22.234Z,11.65
2019-04-14T09:17:51.436Z,11.81
2019-04-14T09:20:21.349Z,11.97
2019-04-14T09:22:50.733Z,12.01
2019-04-14T09:25:20.407Z,12.04
2019-04-14T09:27:50.044Z,12.10
2019-04-14T09:30:19.640Z,12.22
2019-04-14T09:32:49.092Z,12.29
2019-04-14T09:35:19.446Z,12.19
2019-04-14T09:37:50.091Z,12.15
2019-04-14T09:40:19.664Z,12.24
2019-04-14T09:42:49.241Z,12.40
2019-04-14T09:45:19.539Z,12.62
2019-04-14T09:47:49.293Z,12.89
2019-04-14T09:50:19.635Z,13.15
2019-04-14T09:52:49.315Z,13.20
2019-04-14T09:55:19.585Z,13.28
2019-04-14T09:57:49.194Z,13.40
2019-04-14T10:00:19.580Z,13.53
2019-04-14T10:02:49.211Z,13.66
2019-04-14T10:05:19.488Z,13.73
2019-04-14T10:07:49.221Z,13.66
2019-04-14T10:10:19.542Z,13.67
2019-04-14T10:12:49.540Z,13.69
2019-04-14T10:15:19.732Z,13.60
2019-04-14T10:17:49.296Z,13.64
2019-04-14T10:20:20.548Z,13.67
2019-04-14T10:22:52.381Z,13.64
2019-04-14T10:25:21.747Z,13.64
2019-04-14T10:27:52.234Z,13.54
2019-04-14T10:30:21.618Z,13.38
2019-04-14T10:32:51.619Z,13.42
2019-04-14T10:35:21.475Z,13.61
2019-04-14T10:37:51.480Z,13.76
2019-04-14T10:40:21.426Z,13.75
2019-04-14T10:42:50.797Z,13.58
2019-04-14T10:45:20.489Z,13.44
2019-04-14T10:47:50.156Z,12.98
2019-04-14T10:50:30.289Z,12.81
2019-04-14T10:52:50.758Z,12.68
2019-04-14T10:55:20.455Z,12.55
2019-04-14T10:57:50.400Z,12.42
2019-04-14T11:00:19.880Z,12.43
2019-04-14T11:02:49.396Z,12.66
2019-04-14T11:05:19.602Z,12.77
2019-04-14T11:07:49.536Z,12.76
2019-04-14T11:10:19.654Z,12.79
2019-04-14T11:12:49.338Z,12.77
2019-04-14T11:15:20.068Z,12.73
2019-04-14T11:17:49.442Z,12.70
2019-04-14T11:20:19.644Z,12.68
2019-04-14T11:22:49.657Z,12.61
2019-04-14T11:25:19.720Z,12.52
2019-04-14T11:27:50.414Z,12.41
2019-04-14T11:30:21.496Z,12.35
2019-04-14T11:33:07.504Z,12.21
2019-04-14T11:35:44.359Z,12.08
2019-04-14T11:38:15.372Z,11.90
2019-04-14T11:40:55.199Z,11.67
2019-04-14T11:43:24.855Z,11.45
2019-04-14T11:45:54.906Z,11.48
2019-04-14T11:48:24.637Z,11.59
2019-04-14T11:50:54.349Z,11.57
2019-04-14T11:53:24.252Z,11.55
2019-04-14T11:55:53.621Z,11.58
2019-04-14T11:58:23.020Z,11.61
2019-04-14T12:01:11.998Z,11.57
2019-04-14T12:03:49.416Z,11.46
2019-04-14T12:06:21.436Z,11.36
2019-04-14T12:08:52.448Z,11.40
2019-04-14T12:11:21.980Z,11.49
2019-04-14T12:13:51.421Z,11.49
2019-04-14T12:16:21.112Z,11.47
2019-04-14T12:18:50.486Z,11.39
2019-04-14T12:21:19.900Z,11.40
2019-04-14T12:23:49.401Z,11.46
2019-04-14T12:26:19.918Z,11.48
2019-04-14T12:28:49.503Z,11.41
2019-04-14T12:31:21.833Z,11.41
2019-04-14T12:33:51.555Z,11.40
2019-04-14T12:36:21.509Z,11.36
2019-04-14T12:38:52.108Z,11.23
2019-04-14T12:41:39.754Z,11.13
2019-04-14T12:44:27.486Z,11.13
2019-04-14T12:47:01.270Z,11.04
2019-04-14T12:49:44.294Z,10.86
2019-04-14T12:52:21.393Z,10.85
2019-04-14T12:54:49.767Z,10.98
2019-04-14T12:57:36.408Z,11.00
2019-04-14T13:00:08.455Z,11.07
2019-04-14T13:02:39.458Z,11.21
2019-04-14T13:05:09.863Z,11.40
2019-04-14T13:07:39.553Z,11.50
2019-04-14T13:10:09.100Z,11.53
2019-04-14T13:12:38.543Z,11.43
2019-04-14T13:15:07.946Z,11.29
2019-04-14T13:17:37.610Z,11.12
2019-04-14T13:20:08.155Z,11.13
2019-04-14T13:22:37.819Z,11.21
2019-04-14T13:25:08.156Z,11.21
2019-04-14T13:27:37.872Z,11.16
2019-04-14T13:30:10.070Z,11.16
2019-04-14T13:32:39.530Z,11.11
2019-04-14T13:35:08.990Z,11.07
2019-04-14T13:37:38.831Z,10.89
2019-04-14T13:40:08.552Z,10.78
2019-04-14T13:42:37.918Z,10.66
2019-04-14T13:45:08.037Z,10.49
2019-04-14T13:47:37.537Z,10.49
2019-04-14T13:50:06.999Z,10.46
2019-04-14T13:52:46.685Z,10.41
2019-04-14T13:55:09.174Z,10.43
2019-04-14T13:57:38.564Z,10.43
2019-04-14T14:00:10.980Z,10.46
2019-04-14T14:02:41.023Z,10.46
2019-04-14T14:05:10.795Z,10.46
2019-04-14T14:07:40.241Z,10.46
2019-04-14T14:10:10.481Z,10.43
2019-04-14T14:12:58.015Z,10.27
2019-04-14T14:15:41.342Z,10.12
2019-04-14T14:18:28.466Z,9.99
2019-04-14T14:21:11.389Z,9.99
2019-04-14T14:23:58.456Z,9.98
2019-04-14T14:26:35.430Z,9.87
2019-04-14T14:29:05.322Z,9.82
2019-04-14T14:31:35.040Z,9.72
2019-04-14T14:34:04.828Z,9.59
2019-04-14T14:36:34.271Z,9.56
2019-04-14T14:39:06.026Z,9.64
2019-04-14T14:41:36.099Z,9.72
2019-04-14T14:44:06.131Z,9.80
2019-04-14T14:46:46.080Z,9.77
2019-04-14T14:49:33.491Z,9.64
2019-04-14T14:52:10.051Z,9.65
2019-04-14T14:54:40.032Z,9.65
2019-04-14T14:57:09.995Z,9.71
2019-04-14T14:59:39.375Z,9.73
2019-04-14T15:02:08.909Z,9.68
2019-04-14T15:04:38.320Z,9.71
2019-04-14T15:07:07.944Z,9.72
2019-04-14T15:09:37.607Z,9.65
2019-04-14T15:12:07.213Z,9.56
2019-04-14T15:14:37.204Z,9.48
2019-04-14T15:17:08.398Z,9.41
2019-04-14T15:19:38.454Z,9.42
2019-04-14T15:22:08.119Z,9.45
2019-04-14T15:24:38.594Z,9.45
2019-04-14T15:27:08.027Z,9.41
2019-04-14T15:29:38.036Z,9.35
2019-04-14T15:32:07.394Z,9.29
2019-04-14T15:34:37.037Z,9.22
2019-04-14T15:37:06.558Z,9.17
2019-04-14T15:39:37.721Z,9.17
2019-04-14T15:42:07.171Z,9.11
2019-04-14T15:44:37.116Z,9.09
2019-04-14T15:47:06.525Z,9.04
2019-04-14T15:49:36.210Z,8.95
2019-04-14T15:52:05.568Z,8.88
2019-04-14T15:54:35.255Z,8.82
2019-04-14T15:57:07.376Z,8.83
2019-04-14T15:59:54.972Z,8.89
2019-04-14T16:02:43.895Z,8.94
2019-04-14T16:05:14.889Z,8.98
2019-04-14T16:07:45.920Z,8.94
2019-04-14T16:10:33.194Z,8.86
2019-04-14T16:13:22.196Z,8.80
2019-04-14T16:15:56.175Z,8.77
2019-04-14T16:18:28.769Z,8.76
2019-04-14T16:20:58.432Z,8.73
2019-04-14T16:23:28.261Z,8.62
2019-04-14T16:25:59.572Z,8.58
2019-04-14T16:28:38.194Z,8.59
2019-04-14T16:31:24.713Z,8.53
2019-04-14T16:34:11.790Z,8.44
2019-04-14T16:36:43.313Z,8.31
2019-04-14T16:39:12.829Z,8.31
2019-04-14T16:41:42.245Z,8.26
2019-04-14T16:44:11.595Z,8.21
2019-04-14T16:46:41.043Z,8.15
2019-04-14T16:49:10.746Z,8.15
2019-04-14T16:51:44.662Z,8.12
2019-04-14T16:54:31.780Z,8.05
2019-04-14T16:57:19.027Z,8.05
2019-04-14T16:59:48.671Z,8.02
2019-04-14T17:02:18.188Z,7.91
2019-04-14T17:04:47.561Z,7.91
2019-04-14T17:07:17.128Z,7.84
2019-04-14T17:09:46.778Z,7.84
2019-04-14T17:12:18.198Z,7.86
2019-04-14T17:14:49.165Z,7.88
2019-04-14T17:17:20.207Z,7.87
2019-04-14T17:20:00.349Z,7.88
2019-04-14T17:22:32.906Z,7.89
2019-04-14T17:25:09.821Z,7.88
2019-04-14T17:27:44.327Z,7.88
2019-04-14T17:30:19.187Z,7.71
2019-04-14T17:32:52.918Z,7.64
2019-04-14T17:35:30.171Z,7.74
2019-04-14T17:38:07.172Z,7.74
2019-04-14T17:40:56.396Z,7.76
2019-04-14T17:43:33.731Z,7.80
2019-04-14T17:46:05.897Z,7.81
2019-04-14T17:48:40.483Z,7.84
2019-04-14T17:51:14.466Z,7.84
2019-04-14T17:53:48.679Z,7.82
2019-04-14T17:56:28.932Z,7.80
2019-04-14T17:59:00.234Z,7.78
2019-04-14T18:01:33.915Z,7.72
2019-04-14T18:04:05.701Z,7.71
2019-04-14T18:06:42.991Z,7.74
2019-04-14T18:09:16.972Z,7.78
2019-04-14T18:11:56.712Z,7.78
2019-04-14T18:14:40.094Z,7.81
2019-04-14T18:17:20.888Z,7.85
2019-04-14T18:19:51.902Z,7.89
2019-04-14T18:22:21.606Z,7.93
2019-04-14T18:24:51.537Z,7.98
2019-04-14T18:27:22.787Z,7.95
2019-04-14T18:29:56.915Z,7.89
2019-04-14T18:32:37.051Z,7.89
2019-04-14T18:35:23.133Z,7.92
2019-04-14T18:38:03.556Z,7.96
2019-04-14T18:40:35.467Z,7.97
2019-04-14T18:43:06.703Z,7.97
2019-04-14T18:45:51.023Z,7.98
2019-04-14T18:48:35.349Z,7.98
2019-04-14T18:51:19.069Z,7.99
2019-04-14T18:53:53.196Z,8.00
2019-04-14T18:56:27.449Z,8.04
2019-04-14T18:59:12.902Z,8.04
2019-04-14T19:01:53.522Z,8.07
2019-04-14T19:04:23.845Z,8.06
2019-04-14T19:06:53.459Z,8.02
2019-04-14T19:09:23.257Z,8.03
2019-04-14T19:11:56.889Z,8.06
2019-04-14T19:14:28.279Z,8.08
2019-04-14T19:17:11.245Z,8.07
2019-04-14T19:20:01.301Z,8.07
2019-04-14T19:22:22.649Z,8.09
2019-04-14T19:24:52.013Z,8.05
2019-04-14T19:27:22.763Z,8.03
2019-04-14T19:29:52.385Z,8.01
2019-04-14T19:32:21.819Z,7.98
2019-04-14T19:34:51.657Z,7.97
2019-04-14T19:37:21.089Z,7.96
2019-04-14T19:39:50.564Z,7.93
2019-04-14T19:42:20.867Z,7.90
2019-04-14T19:44:50.525Z,7.93
2019-04-14T19:47:20.915Z,7.95
2019-04-14T19:49:51.425Z,7.95
2019-04-14T19:52:21.809Z,7.96
2019-04-14T19:54:51.696Z,7.96
2019-04-14T19:57:22.176Z,7.94
2019-04-14T19:59:52.442Z,7.93
2019-04-14T20:02:21.803Z,7.93
2019-04-14T20:04:51.472Z,7.96
2019-04-14T20:07:20.885Z,7.97
2019-04-14T20:09:50.554Z,7.91
2019-04-14T20:12:20.877Z,7.91
2019-04-14T20:14:50.595Z,7.92
2019-04-14T20:17:22.520Z,7.95
2019-04-14T20:19:59.256Z,7.94
2019-04-14T20:22:30.566Z,7.92
2019-04-14T20:25:01.847Z,7.95
2019-04-14T20:27:36.832Z,7.96
2019-04-14T20:30:20.949Z,7.99
2019-04-14T20:32:50.842Z,8.00
2019-04-14T20:35:20.940Z,8.01
2019-04-14T20:37:50.562Z,8.00
2019-04-14T20:40:20.906Z,8.00
2019-04-14T20:42:50.586Z,8.00
2019-04-14T20:45:20.985Z,8.00
2019-04-14T20:47:50.611Z,8.00
2019-04-14T20:50:21.004Z,8.01
2019-04-14T20:52:50.568Z,7.97
2019-04-14T20:55:21.175Z,7.95
2019-04-14T20:57:51.288Z,7.92
2019-04-14T21:00:21.831Z,7.90
2019-04-14T21:03:10.731Z,7.87
2019-04-14T21:05:41.774Z,7.85
2019-04-14T21:08:31.068Z,7.81
2019-04-14T21:11:02.439Z,7.80
2019-04-14T21:13:33.452Z,7.77
2019-04-14T21:16:13.329Z,7.74
2019-04-14T21:18:47.280Z,7.71
2019-04-14T21:21:20.921Z,7.72
2019-04-14T21:23:54.629Z,7.74
2019-04-14T21:26:26.443Z,7.76
2019-04-14T21:29:03.911Z,7.77
2019-04-14T21:31:51.158Z,7.79
2019-04-14T21:34:22.796Z,7.80
2019-04-14T21:36:56.916Z,7.81
2019-04-14T21:39:40.502Z,7.81
2019-04-14T21:42:08.974Z,7.84
2019-04-14T21:44:38.359Z,7.84
2019-04-14T21:47:07.898Z,7.85
2019-04-14T21:49:37.291Z,7.85
2019-04-14T21:52:11.389Z,7.84
2019-04-14T21:54:42.677Z,7.86
2019-04-14T21:57:13.684Z,7.86
2019-04-14T22:00:00.674Z,7.86
2019-04-14T22:02:48.453Z,7.87
2019-04-14T22:05:22.043Z,7.87
2019-04-14T22:08:02.511Z,7.86
2019-04-14T22:10:36.758Z,7.87
2019-04-14T22:13:06.156Z,7.85
2019-04-14T22:15:35.578Z,7.85
2019-04-14T22:18:04.989Z,7.85
2019-04-14T22:20:34.361Z,7.85
2019-04-14T22:23:05.563Z,7.84
2019-04-14T22:25:35.173Z,7.84
2019-04-14T22:28:05.133Z,7.85
2019-04-14T22:30:34.515Z,7.84
2019-04-14T22:33:04.623Z,7.84
2019-04-14T22:35:35.071Z,7.84
2019-04-14T22:38:04.429Z,7.84
2019-04-14T22:40:34.115Z,7.85
2019-04-14T22:43:04.044Z,7.84
2019-04-14T22:45:34.462Z,7.85
2019-04-14T22:48:04.292Z,7.88
2019-04-14T22:50:33.977Z,7.91
2019-04-14T22:53:03.401Z,7.92
2019-04-14T22:55:34.222Z,7.94
2019-04-14T22:58:03.950Z,7.96
2019-04-14T23:00:49.850Z,7.95
2019-04-14T23:03:39.746Z,7.95
2019-04-14T23:06:22.350Z,8.00
2019-04-14T23:08:54.610Z,8.02
2019-04-14T23:11:31.797Z,8.03
2019-04-14T23:14:02.825Z,8.02
2019-04-14T23:16:37.036Z,8.01
2019-04-14T23:19:14.460Z,8.01
2019-04-14T23:21:51.321Z,7.97
2019-04-14T23:24:23.929Z,7.97
2019-04-14T23:26:53.467Z,8.01
2019-04-14T23:29:23.152Z,8.01
2019-04-14T23:31:52.536Z,8.02
2019-04-14T23:34:22.473Z,8.03
2019-04-14T23:36:52.306Z,8.03
2019-04-14T23:39:21.698Z,8.02
2019-04-14T23:41:51.157Z,8.04
2019-04-14T23:44:21.485Z,8.04
2019-04-14T23:46:51.082Z,8.04
2019-04-14T23:49:21.419Z,8.04
2019-04-14T23:51:51.665Z,8.02
2019-04-14T23:54:21.555Z,8.00
2019-04-14T23:57:04.463Z,8.00
2019-04-14T23:59:22.532Z,7.98
